createdAt,value
2019-02-08T00:01:39.489Z,63.63
2019-02-08T00:04:09.917Z,59.17
2019-02-08T00:06:40.289Z,55.57
2019-02-08T00:09:11.372Z,48.67
2019-02-08T00:11:41.679Z,50.93
2019-02-08T00:14:12.472Z,50.13
2019-02-08T00:16:42.734Z,54.03
2019-02-08T00:19:13.059Z,50.97
2019-02-08T00:21:43.277Z,50.37
2019-02-08T00:24:13.624Z,58.43
2019-02-08T00:26:44.018Z,51.40
2019-02-08T00:29:14.217Z,57.07
2019-02-08T00:31:44.513Z,56.27
2019-02-08T00:34:14.824Z,53.27
2019-02-08T00:36:45.187Z,54.87
2019-02-08T00:39:15.459Z,53.50
2019-02-08T00:41:46.289Z,57.93
2019-02-08T00:44:16.714Z,58.97
2019-02-08T00:46:46.957Z,64.33
2019-02-08T00:49:17.193Z,60.23
2019-02-08T00:51:47.916Z,63.30
2019-02-08T00:54:19.332Z,55.73
2019-02-08T00:56:51.042Z,56.03
2019-02-08T00:59:21.704Z,49.10
2019-02-08T01:01:52.299Z,51.97
2019-02-08T01:04:23.734Z,52.67
2019-02-08T01:06:54.283Z,53.73
2019-02-08T01:09:24.689Z,52.47
2019-02-08T01:11:55.374Z,51.23
2019-02-08T01:14:25.650Z,55.50
2019-02-08T01:16:55.974Z,52.43
2019-02-08T01:19:26.312Z,55.93
2019-02-08T01:21:56.568Z,53.93
2019-02-08T01:24:26.922Z,52.80
2019-02-08T01:26:57.303Z,53.10
2019-02-08T01:29:27.658Z,51.20
2019-02-08T01:31:57.851Z,49.20
2019-02-08T01:34:28.162Z,48.60
2019-02-08T01:36:58.458Z,48.80
2019-02-08T01:39:28.957Z,45.23
2019-02-08T01:41:59.353Z,48.93
2019-02-08T01:44:29.602Z,46.30
2019-02-08T01:46:59.866Z,48.73
2019-02-08T01:49:30.222Z,47.63
2019-02-08T01:52:00.586Z,46.13
2019-02-08T01:54:31.026Z,42.57
2019-02-08T01:57:01.368Z,43.87
2019-02-08T01:59:31.919Z,41.30
2019-02-08T02:02:02.196Z,39.43
2019-02-08T02:04:32.587Z,40.20
2019-02-08T02:07:02.848Z,39.97
2019-02-08T02:09:33.120Z,38.70
2019-02-08T02:12:03.597Z,39.70
2019-02-08T02:14:33.927Z,39.80
2019-02-08T02:17:04.249Z,38.30
2019-02-08T02:19:34.614Z,38.97
2019-02-08T02:22:05.073Z,41.83
2019-02-08T02:24:35.290Z,41.47
2019-02-08T02:27:05.601Z,42.63
2019-02-08T02:29:35.871Z,40.67
2019-02-08T02:32:06.356Z,42.60
2019-02-08T02:34:36.623Z,43.90
2019-02-08T02:37:06.912Z,41.67
2019-02-08T02:39:37.143Z,43.23
2019-02-08T02:42:07.645Z,39.90
2019-02-08T02:44:37.913Z,41.37
2019-02-08T02:47:08.185Z,42.43
2019-02-08T02:49:38.480Z,40.23
2019-02-08T02:52:08.985Z,42.13
2019-02-08T02:54:39.292Z,41.53
2019-02-08T02:57:09.574Z,42.90
2019-02-08T02:59:39.818Z,40.13
2019-02-08T03:02:10.049Z,38.33
2019-02-08T03:04:40.380Z,43.13
2019-02-08T03:07:10.704Z,41.33
2019-02-08T03:09:41.007Z,41.67
2019-02-08T03:12:11.322Z,42.63
2019-02-08T03:14:41.675Z,41.63
2019-02-08T03:17:11.917Z,43.87
2019-02-08T03:19:42.270Z,43.63
2019-02-08T03:22:12.519Z,44.87
2019-02-08T03:24:42.786Z,42.23
2019-02-08T03:27:13.164Z,39.83
2019-02-08T03:29:43.533Z,40.13
2019-02-08T03:32:13.963Z,43.17
2019-02-08T03:34:44.303Z,41.13
2019-02-08T03:37:15.049Z,43.53
2019-02-08T03:39:45.284Z,43.43
2019-02-08T03:42:15.629Z,47.23
2019-02-08T03:44:45.892Z,45.20
2019-02-08T03:47:16.409Z,47.80
2019-02-08T03:49:46.746Z,48.73
2019-02-08T03:52:17.134Z,49.00
2019-02-08T03:54:47.407Z,46.07
2019-02-08T03:57:17.855Z,47.23
2019-02-08T03:59:48.179Z,50.07
2019-02-08T04:02:18.401Z,51.03
2019-02-08T04:04:48.718Z,47.73
2019-02-08T04:07:19.086Z,47.93
2019-02-08T04:09:49.506Z,49.43
2019-02-08T04:12:19.907Z,49.57
2019-02-08T04:14:50.142Z,46.70
2019-02-08T04:17:20.346Z,49.00
2019-02-08T04:19:50.675Z,49.63
2019-02-08T04:22:20.947Z,52.10
2019-02-08T04:24:51.213Z,51.13
2019-02-08T04:27:21.621Z,51.87
2019-02-08T04:29:51.922Z,48.57
2019-02-08T04:32:22.248Z,50.73
2019-02-08T04:34:52.563Z,50.87
2019-02-08T04:37:22.727Z,50.43
2019-02-08T04:39:52.987Z,52.17
2019-02-08T04:42:23.382Z,49.17
2019-02-08T04:44:53.752Z,51.50
2019-02-08T04:47:24.024Z,50.73
2019-02-08T04:49:54.312Z,49.83
2019-02-08T04:52:24.625Z,49.67
2019-02-08T04:54:54.902Z,49.50
2019-02-08T04:57:25.207Z,50.97
2019-02-08T04:59:55.565Z,56.13
2019-02-08T05:02:25.903Z,48.33
2019-02-08T05:04:56.303Z,49.10
2019-02-08T05:07:44.175Z,52.90
2019-02-08T05:10:15.611Z,55.67
2019-02-08T05:12:45.905Z,56.03
2019-02-08T05:15:16.696Z,59.33
2019-02-08T05:17:47.017Z,59.53
2019-02-08T05:20:19.046Z,55.07
2019-02-08T05:22:49.405Z,57.63
2019-02-08T05:25:19.941Z,61.83
2019-02-08T05:27:52.472Z,59.80
2019-02-08T05:30:28.325Z,57.40
2019-02-08T05:32:58.754Z,60.63
2019-02-08T05:35:29.282Z,62.30
2019-02-08T05:37:59.682Z,59.90
2019-02-08T05:40:30.053Z,59.43
2019-02-08T05:43:00.559Z,58.90
2019-02-08T05:45:31.037Z,60.17
2019-02-08T05:48:01.300Z,57.23
2019-02-08T05:50:31.543Z,57.07
2019-02-08T05:53:01.943Z,59.13
2019-02-08T05:55:32.876Z,57.73
2019-02-08T05:58:03.436Z,53.97
2019-02-08T06:00:46.559Z,58.90
2019-02-08T06:03:16.887Z,58.93
2019-02-08T06:05:47.476Z,54.43
2019-02-08T06:08:17.928Z,57.80
2019-02-08T06:10:48.174Z,56.57
2019-02-08T06:13:18.503Z,57.30
2019-02-08T06:15:48.872Z,53.63
2019-02-08T06:18:19.143Z,55.67
2019-02-08T06:20:49.480Z,54.10
2019-02-08T06:23:19.828Z,52.17
2019-02-08T06:25:50.090Z,51.00
2019-02-08T06:28:20.449Z,50.70
2019-02-08T06:30:50.844Z,54.80
2019-02-08T06:33:21.081Z,53.77
2019-02-08T06:35:51.387Z,52.83
2019-02-08T06:38:21.670Z,54.90
2019-02-08T06:40:52.031Z,56.10
2019-02-08T06:43:22.293Z,54.47
2019-02-08T06:45:52.659Z,58.03
2019-02-08T06:48:22.915Z,58.50
2019-02-08T06:50:53.254Z,60.37
2019-02-08T06:53:23.636Z,59.30
2019-02-08T06:55:54.173Z,61.90
2019-02-08T06:58:43.576Z,57.47
2019-02-08T07:01:31.411Z,55.63
2019-02-08T07:04:23.545Z,54.37
2019-02-08T07:07:12.812Z,55.07
2019-02-08T07:10:03.822Z,55.70
2019-02-08T07:12:56.171Z,56.10
2019-02-08T07:15:49.022Z,54.43
2019-02-08T07:18:44.630Z,54.27
2019-02-08T07:21:34.930Z,51.87
2019-02-08T07:24:24.907Z,52.60
2019-02-08T07:27:05.475Z,53.90
2019-02-08T07:29:53.306Z,52.63
2019-02-08T07:32:41.242Z,53.77
2019-02-08T07:35:30.406Z,54.43
2019-02-08T07:38:22.317Z,52.47
2019-02-08T07:41:23.694Z,55.17
2019-02-08T07:44:12.569Z,54.27
2019-02-08T07:47:04.684Z,54.87
2019-02-08T07:49:43.199Z,54.87
2019-02-08T07:52:29.598Z,51.33
2019-02-08T07:55:14.666Z,54.30
2019-02-08T07:58:02.909Z,52.37
2019-02-08T08:01:05.898Z,52.30
2019-02-08T08:03:48.612Z,52.57
2019-02-08T08:06:33.280Z,52.17
2019-02-08T08:09:22.552Z,48.77
2019-02-08T08:12:12.012Z,46.87
2019-02-08T08:15:04.250Z,53.27
2019-02-08T08:17:52.801Z,51.43
2019-02-08T08:20:52.614Z,50.60
2019-02-08T08:23:33.078Z,52.03
2019-02-08T08:26:23.170Z,52.57
2019-02-08T08:29:18.372Z,47.37
2019-02-08T08:32:02.417Z,51.90
2019-02-08T08:34:53.224Z,48.00
2019-02-08T08:38:12.388Z,46.13
2019-02-08T08:41:19.883Z,49.43
2019-02-08T08:44:12.846Z,47.70
2019-02-08T08:47:39.079Z,47.77
2019-02-08T08:50:51.687Z,50.50
2019-02-08T08:54:02.867Z,48.17
2019-02-08T08:57:07.804Z,50.17
2019-02-08T09:00:26.158Z,47.43
2019-02-08T09:03:38.153Z,48.43
2019-02-08T09:06:55.581Z,49.47
2019-02-08T09:10:06.934Z,47.57
2019-02-08T09:13:21.987Z,49.17
2019-02-08T09:16:37.129Z,45.47
2019-02-08T09:19:43.277Z,48.93
2019-02-08T09:22:33.363Z,48.03
2019-02-08T09:25:33.278Z,51.07
2019-02-08T09:28:53.166Z,48.60
2019-02-08T09:31:56.022Z,51.07
2019-02-08T09:34:58.256Z,50.27
2019-02-08T09:38:36.744Z,51.60
2019-02-08T09:41:49.053Z,49.70
2019-02-08T09:45:02.695Z,50.47
2019-02-08T09:48:13.669Z,50.90
2019-02-08T09:51:27.921Z,48.30
2019-02-08T09:54:22.195Z,49.47
2019-02-08T09:57:27.960Z,51.37
2019-02-08T10:00:44.774Z,47.90
2019-02-08T10:03:50.936Z,49.43
2019-02-08T10:07:16.862Z,47.97
2019-02-08T10:10:38.515Z,48.37
2019-02-08T10:13:45.370Z,48.17
2019-02-08T10:17:23.893Z,51.00
2019-02-08T10:20:43.880Z,53.33
2019-02-08T10:23:59.669Z,53.97
2019-02-08T10:27:12.898Z,54.97
2019-02-08T10:30:16.092Z,55.87
2019-02-08T10:33:26.048Z,61.40
2019-02-08T10:36:35.792Z,59.70
2019-02-08T10:39:45.950Z,52.70
2019-02-08T10:42:53.036Z,57.47
2019-02-08T10:46:04.420Z,55.33
2019-02-08T10:49:12.327Z,51.30
2019-02-08T10:52:17.875Z,50.93
2019-02-08T10:55:14.003Z,52.13
2019-02-08T10:58:20.176Z,46.07
2019-02-08T11:01:33.293Z,49.60
2019-02-08T11:04:39.669Z,51.10
2019-02-08T11:07:53.567Z,50.87
2019-02-08T11:11:00.492Z,52.17
2019-02-08T11:14:23.449Z,48.70
2019-02-08T11:17:32.990Z,46.97
2019-02-08T11:20:03.327Z,49.07
2019-02-08T11:22:33.694Z,49.80
2019-02-08T11:25:04.518Z,48.77
2019-02-08T11:27:34.828Z,45.37
2019-02-08T11:30:09.017Z,46.57
2019-02-08T11:32:43.158Z,44.20
2019-02-08T11:35:12.644Z,46.80
2019-02-08T11:37:43.346Z,46.53
2019-02-08T11:40:18.255Z,46.27
2019-02-08T11:42:48.573Z,43.77
2019-02-08T11:45:23.931Z,46.03
2019-02-08T11:47:54.342Z,46.20
2019-02-08T11:50:24.769Z,45.00
2019-02-08T11:52:56.973Z,45.83
2019-02-08T11:55:28.969Z,43.37
2019-02-08T11:57:59.346Z,45.20
2019-02-08T12:00:36.247Z,42.20
2019-02-08T12:03:07.467Z,39.47
2019-02-08T12:05:37.731Z,40.30
2019-02-08T12:08:08.786Z,34.80
2019-02-08T12:10:39.327Z,38.00
2019-02-08T12:13:09.735Z,37.13
2019-02-08T12:15:40.075Z,39.30
2019-02-08T12:18:10.437Z,39.43
2019-02-08T12:20:40.931Z,42.93
2019-02-08T12:23:11.187Z,40.60
2019-02-08T12:25:41.582Z,39.80
2019-02-08T12:28:11.891Z,42.53
2019-02-08T12:30:42.540Z,40.67
2019-02-08T12:33:12.792Z,38.67
2019-02-08T12:35:43.174Z,41.07
2019-02-08T12:38:13.459Z,40.03
2019-02-08T12:40:43.644Z,40.03
2019-02-08T12:43:14.032Z,39.93
2019-02-08T12:45:44.334Z,39.33
2019-02-08T12:48:14.749Z,41.00
2019-02-08T12:50:45.272Z,38.10
2019-02-08T12:53:15.547Z,38.60
2019-02-08T12:55:45.757Z,36.43
2019-02-08T12:58:16.101Z,37.13
2019-02-08T13:00:46.447Z,34.83
2019-02-08T13:03:16.890Z,30.13
2019-02-08T13:05:47.349Z,36.53
2019-02-08T13:08:17.588Z,34.30
2019-02-08T13:10:48.268Z,34.63
2019-02-08T13:13:18.494Z,33.00
2019-02-08T13:15:48.795Z,33.87
2019-02-08T13:18:19.175Z,29.90
2019-02-08T13:20:49.431Z,34.30
2019-02-08T13:23:19.647Z,32.07
2019-02-08T13:25:51.665Z,31.13
2019-02-08T13:28:22.102Z,31.87
2019-02-08T13:30:52.360Z,30.83
2019-02-08T13:33:22.672Z,33.30
2019-02-08T13:35:52.950Z,29.37
2019-02-08T13:38:23.975Z,31.10
2019-02-08T13:40:54.370Z,32.50
2019-02-08T13:43:24.602Z,30.87
2019-02-08T13:45:54.813Z,29.27
2019-02-08T13:48:25.170Z,30.73
2019-02-08T13:50:55.494Z,31.47
2019-02-08T13:53:25.908Z,29.13
2019-02-08T13:55:56.283Z,29.60
2019-02-08T13:58:26.516Z,32.33
2019-02-08T14:00:56.695Z,32.83
2019-02-08T14:03:27.062Z,31.27
2019-02-08T14:05:57.283Z,33.33
2019-02-08T14:08:27.512Z,30.90
2019-02-08T14:10:57.804Z,32.73
2019-02-08T14:13:28.192Z,32.87
2019-02-08T14:15:58.532Z,32.03
2019-02-08T14:18:28.884Z,29.73
2019-02-08T14:20:59.138Z,28.83
2019-02-08T14:23:29.378Z,31.90
2019-02-08T14:25:59.783Z,29.93
2019-02-08T14:28:30.142Z,29.67
2019-02-08T14:31:00.412Z,28.60
2019-02-08T14:33:30.707Z,30.83
2019-02-08T14:36:00.995Z,31.17
2019-02-08T14:38:31.313Z,31.40
2019-02-08T14:41:01.680Z,28.07
2019-02-08T14:43:31.866Z,27.17
2019-02-08T14:46:02.196Z,28.93
2019-02-08T14:48:32.730Z,26.27
2019-02-08T14:51:04.510Z,26.00
2019-02-08T14:53:35.307Z,26.63
2019-02-08T14:56:05.855Z,26.17
2019-02-08T14:58:37.278Z,29.37
2019-02-08T15:01:07.543Z,29.23
2019-02-08T15:03:37.953Z,28.27
2019-02-08T15:06:10.245Z,27.73
2019-02-08T15:08:42.360Z,26.77
2019-02-08T15:11:12.568Z,25.87
2019-02-08T15:13:44.826Z,26.03
2019-02-08T15:16:15.759Z,25.50
2019-02-08T15:18:45.979Z,25.30
2019-02-08T15:21:16.259Z,24.93
2019-02-08T15:23:46.659Z,26.43
2019-02-08T15:26:16.995Z,24.33
2019-02-08T15:28:47.302Z,25.73
2019-02-08T15:31:17.651Z,25.30
2019-02-08T15:33:48.279Z,24.97
2019-02-08T15:36:18.595Z,25.30
2019-02-08T15:38:48.921Z,23.50
2019-02-08T15:41:19.299Z,24.13
2019-02-08T15:43:49.535Z,24.10
2019-02-08T15:46:22.201Z,24.33
2019-02-08T15:48:52.652Z,24.17
2019-02-08T15:51:23.715Z,25.03
2019-02-08T15:53:55.474Z,23.17
2019-02-08T15:56:29.586Z,24.57
2019-02-08T15:58:59.869Z,24.43
2019-02-08T16:01:30.744Z,24.67
2019-02-08T16:04:01.032Z,22.60
2019-02-08T16:06:31.481Z,23.90
2019-02-08T16:09:01.827Z,24.63
2019-02-08T16:11:33.110Z,24.13
2019-02-08T16:14:03.519Z,23.80
2019-02-08T16:16:33.916Z,23.07
2019-02-08T16:19:04.407Z,30.37
2019-02-08T16:21:34.698Z,32.17
2019-02-08T16:24:07.652Z,30.40
2019-02-08T16:26:40.225Z,34.73
2019-02-08T16:29:11.491Z,27.07
2019-02-08T16:31:42.619Z,23.73
2019-02-08T16:34:13.086Z,22.00
2019-02-08T16:36:43.782Z,25.63
2019-02-08T16:39:14.287Z,25.07
2019-02-08T16:41:47.753Z,27.13
2019-02-08T16:44:19.050Z,31.27
2019-02-08T16:46:49.789Z,42.20
2019-02-08T16:49:20.473Z,50.93
2019-02-08T16:51:51.082Z,45.23
2019-02-08T16:54:21.548Z,61.77
2019-02-08T16:56:51.843Z,34.97
2019-02-08T16:59:25.028Z,30.40
2019-02-08T17:01:55.723Z,35.27
2019-02-08T17:04:27.305Z,31.23
2019-02-08T17:06:57.627Z,33.53
2019-02-08T17:09:31.302Z,34.57
2019-02-08T17:12:04.076Z,41.27
2019-02-08T17:14:34.543Z,43.07
2019-02-08T17:17:05.007Z,35.10
2019-02-08T17:19:35.458Z,40.23
2019-02-08T17:22:05.898Z,40.37
2019-02-08T17:24:36.712Z,35.20
2019-02-08T17:27:07.648Z,45.40
2019-02-08T17:29:38.689Z,43.30
2019-02-08T17:32:18.787Z,46.10
2019-02-08T17:34:52.866Z,50.53
2019-02-08T17:37:24.960Z,48.13
2019-02-08T17:39:56.712Z,46.87
2019-02-08T17:42:28.135Z,42.67
2019-02-08T17:44:59.733Z,50.20
2019-02-08T17:47:31.207Z,48.00
2019-02-08T17:50:02.689Z,49.80
2019-02-08T17:52:34.602Z,49.70
2019-02-08T17:55:07.405Z,55.20
2019-02-08T17:57:39.007Z,48.63
2019-02-08T18:00:14.907Z,53.90
2019-02-08T18:02:46.648Z,60.97
2019-02-08T18:05:18.419Z,56.03
2019-02-08T18:07:49.761Z,53.93
2019-02-08T18:10:22.082Z,52.87
2019-02-08T18:12:53.797Z,54.93
2019-02-08T18:15:25.707Z,54.67
2019-02-08T18:17:57.611Z,54.50
2019-02-08T18:20:34.053Z,51.83
2019-02-08T18:23:05.831Z,54.30
2019-02-08T18:25:37.311Z,49.03
2019-02-08T18:28:11.061Z,50.33
2019-02-08T18:30:41.862Z,51.67
2019-02-08T18:33:14.707Z,54.10
2019-02-08T18:35:45.568Z,48.53
2019-02-08T18:38:16.938Z,52.93
2019-02-08T18:40:48.821Z,54.30
2019-02-08T18:43:19.954Z,47.97
2019-02-08T18:45:51.647Z,56.60
2019-02-08T18:48:23.335Z,51.30
2019-02-08T18:50:56.194Z,50.23
2019-02-08T18:53:28.214Z,56.97
2019-02-08T18:56:00.258Z,48.93
2019-02-08T18:58:32.024Z,55.90
2019-02-08T19:01:04.060Z,53.23
2019-02-08T19:03:35.964Z,51.07
2019-02-08T19:06:08.188Z,52.73
2019-02-08T19:08:40.155Z,57.40
2019-02-08T19:11:11.652Z,52.77
2019-02-08T19:13:44.060Z,50.67
2019-02-08T19:16:22.497Z,49.87
2019-02-08T19:18:57.121Z,54.83
2019-02-08T19:21:31.072Z,55.43
2019-02-08T19:24:03.018Z,64.60
2019-02-08T19:26:34.973Z,54.57
2019-02-08T19:29:06.917Z,51.70
2019-02-08T19:31:38.370Z,54.03
2019-02-08T19:34:10.094Z,60.33
2019-02-08T19:36:42.344Z,63.03
2019-02-08T19:39:14.171Z,58.33
2019-02-08T19:41:45.889Z,57.13
2019-02-08T19:44:20.461Z,65.70
2019-02-08T19:46:52.917Z,57.87
2019-02-08T19:49:25.142Z,52.20
2019-02-08T19:51:56.791Z,50.67
2019-02-08T19:54:28.278Z,49.13
2019-02-08T19:56:59.513Z,54.53
2019-02-08T19:59:31.286Z,52.70
2019-02-08T20:02:10.161Z,53.47
2019-02-08T20:04:43.025Z,53.60
2019-02-08T20:07:15.528Z,66.17
2019-02-08T20:09:47.148Z,66.67
2019-02-08T20:12:19.047Z,57.17
2019-02-08T20:14:50.800Z,57.20
2019-02-08T20:17:22.215Z,56.00
2019-02-08T20:19:54.027Z,57.63
2019-02-08T20:22:29.062Z,53.70
2019-02-08T20:25:01.229Z,61.63
2019-02-08T20:27:32.550Z,56.43
2019-02-08T20:30:04.822Z,60.60
2019-02-08T20:32:36.519Z,60.87
2019-02-08T20:35:09.754Z,56.83
2019-02-08T20:37:41.071Z,57.47
2019-02-08T20:40:18.327Z,63.30
2019-02-08T20:42:49.967Z,56.80
2019-02-08T20:45:31.968Z,52.37
2019-02-08T20:48:06.099Z,50.73
2019-02-08T20:50:37.731Z,55.67
2019-02-08T20:53:09.352Z,64.07
2019-02-08T20:55:40.857Z,57.03
2019-02-08T20:58:13.368Z,55.33
2019-02-08T21:00:47.958Z,61.70
2019-02-08T21:03:19.891Z,64.57
2019-02-08T21:05:51.511Z,61.70
2019-02-08T21:08:23.075Z,63.47
2019-02-08T21:10:54.735Z,61.07
2019-02-08T21:13:25.562Z,58.77
2019-02-08T21:15:57.070Z,59.10
2019-02-08T21:18:27.958Z,58.50
2019-02-08T21:20:58.541Z,56.20
2019-02-08T21:23:29.325Z,56.17
2019-02-08T21:26:00.548Z,60.70
2019-02-08T21:28:31.132Z,80.17
2019-02-08T21:31:01.745Z,79.70
2019-02-08T21:33:31.982Z,80.30
2019-02-08T21:36:02.314Z,77.33
2019-02-08T21:38:32.837Z,85.73
2019-02-08T21:41:03.152Z,88.87
2019-02-08T21:43:33.438Z,77.97
2019-02-08T21:46:03.759Z,74.60
2019-02-08T21:48:34.034Z,79.07
2019-02-08T21:51:04.326Z,80.20
2019-02-08T21:53:34.712Z,76.50
2019-02-08T21:56:05.172Z,70.53
2019-02-08T21:58:35.412Z,66.93
2019-02-08T22:01:07.107Z,65.77
2019-02-08T22:03:37.371Z,64.70
2019-02-08T22:06:10.360Z,66.37
2019-02-08T22:08:40.591Z,60.47
2019-02-08T22:11:10.780Z,58.70
2019-02-08T22:13:41.116Z,57.83
2019-02-08T22:16:11.461Z,54.17
2019-02-08T22:18:41.664Z,55.40
2019-02-08T22:21:12.166Z,57.27
2019-02-08T22:23:42.417Z,52.37
2019-02-08T22:26:12.669Z,53.43
2019-02-08T22:28:43.133Z,54.67
2019-02-08T22:31:13.289Z,52.27
2019-02-08T22:33:43.542Z,51.57
2019-02-08T22:36:13.915Z,53.87
2019-02-08T22:38:44.146Z,49.23
2019-02-08T22:41:14.364Z,50.07
2019-02-08T22:43:44.590Z,55.00
2019-02-08T22:46:14.953Z,66.77
2019-02-08T22:48:45.285Z,71.17
2019-02-08T22:51:15.607Z,74.03
2019-02-08T22:53:45.879Z,59.80
2019-02-08T22:56:16.136Z,55.63
2019-02-08T22:58:46.511Z,57.83
2019-02-08T23:01:38.703Z,58.53
2019-02-08T23:04:09.554Z,57.43
2019-02-08T23:06:44.830Z,55.53
2019-02-08T23:09:23.956Z,54.50
2019-02-08T23:11:54.291Z,58.60
2019-02-08T23:14:24.643Z,60.80
2019-02-08T23:16:55.127Z,57.23
2019-02-08T23:19:25.498Z,56.27
2019-02-08T23:21:55.795Z,54.37
2019-02-08T23:24:26.185Z,53.70
2019-02-08T23:26:56.544Z,56.53
2019-02-08T23:29:30.187Z,56.60
2019-02-08T23:31:59.803Z,56.10
2019-02-08T23:34:30.091Z,53.97
2019-02-08T23:37:00.442Z,54.37
2019-02-08T23:39:30.929Z,54.20
2019-02-08T23:42:01.185Z,58.73
2019-02-08T23:44:31.778Z,56.37
2019-02-08T23:47:02.074Z,58.97
2019-02-08T23:49:32.463Z,52.40
2019-02-08T23:52:02.797Z,53.27
2019-02-08T23:54:33.174Z,53.33
2019-02-08T23:57:03.405Z,52.30
2019-02-08T23:59:38.240Z,50.17
